Time;durP1;ratioP1;P1;durP2;ratioP2;P2;SDS_P1;SDS_P2;PMS_P1;PMS_P2;Temp;Humidity;BMP_temperature;BMP_pressure;BME280_temperature;BME280_humidity;BME280_pressure;Samples;Min_cycle;Max_cycle;Signal;HPM_P1;HPM_P2
2022/04/27 00:00:29;;;;;;;8.90;7.18;;;;;;;8.88;81.81;101509.56;5002226;28;20022;-71
2022/04/27 00:02:58;;;;;;;9.63;7.85;;;;;;;8.81;80.75;101510.06;4992337;28;20032;-70
2022/04/27 00:05:24;;;;;;;7.75;7.05;;;;;;;8.86;81.46;101514.09;4955001;28;20191;-70
2022/04/27 00:07:50;;;;;;;10.15;7.85;;;;;;;8.94;81.99;101503.84;4995422;28;20025;-71
2022/04/27 00:10:15;;;;;;;12.18;8.52;;;;;;;8.93;81.06;101504.78;4985226;28;20026;-70
2022/04/27 00:12:41;;;;;;;9.13;8.20;;;;;;;8.87;80.78;101510.50;5014650;28;20017;-69
2022/04/27 00:15:07;;;;;;;9.70;8.90;;;;;;;8.90;82.13;101505.00;4995154;28;20009;-69
2022/04/27 00:17:33;;;;;;;11.70;9.35;;;;;;;8.85;81.50;101503.63;4987943;28;20041;-70
2022/04/27 00:19:59;;;;;;;10.65;9.68;;;;;;;8.81;82.71;101495.06;5005091;28;20034;-70
2022/04/27 00:22:25;;;;;;;10.93;9.82;;;;;;;8.92;82.12;101511.00;5020813;28;20301;-69
2022/04/27 00:24:50;;;;;;;10.95;9.35;;;;;;;8.76;82.73;101498.03;5015400;28;20005;-71
2022/04/27 00:27:15;;;;;;;9.40;8.70;;;;;;;8.70;83.18;101502.88;5018487;28;20044;-71
2022/04/27 00:29:41;;;;;;;10.95;9.95;;;;;;;8.66;84.01;101517.25;4981490;28;20017;-71
2022/04/27 00:32:07;;;;;;;11.73;10.52;;;;;;;8.58;84.46;101509.88;5015427;28;20042;-71
2022/04/27 00:34:32;;;;;;;9.98;8.88;;;;;;;8.57;83.68;101509.03;4961035;28;20025;-70
2022/04/27 00:36:57;;;;;;;9.73;8.77;;;;;;;8.74;83.08;101510.50;4995307;28;20042;-70
2022/04/27 00:39:23;;;;;;;9.82;8.95;;;;;;;8.68;83.06;101516.19;4992793;28;20915;-71
2022/04/27 00:42:00;;;;;;;10.27;9.32;;;;;;;8.58;82.75;101515.97;4996651;28;20414;-70
2022/04/27 00:44:29;;;;;;;11.57;9.00;;;;;;;8.53;83.02;101507.53;4999537;28;20198;-70
2022/04/27 00:46:54;;;;;;;9.95;8.95;;;;;;;8.62;82.72;101515.78;4997233;28;20056;-70
2022/04/27 00:49:20;;;;;;;10.55;9.50;;;;;;;8.54;82.47;101514.50;4961352;28;20018;-70
2022/04/27 00:51:45;;;;;;;9.90;9.02;;;;;;;8.54;82.61;101525.03;4997647;28;20536;-68
2022/04/27 00:54:10;;;;;;;10.48;9.32;;;;;;;8.59;82.78;101520.31;5003464;28;20044;-70
2022/04/27 00:56:37;;;;;;;9.82;8.82;;;;;;;8.73;81.80;101523.81;5001239;28;20473;-70
2022/04/27 00:59:02;;;;;;;9.65;8.75;;;;;;;8.70;81.84;101524.00;4997614;28;20526;-70
2022/04/27 01:01:28;;;;;;;9.10;8.20;;;;;;;8.67;80.95;101529.50;4978242;28;20005;-70
2022/04/27 01:03:53;;;;;;;10.23;8.00;;;;;;;8.59;81.25;101522.94;4992346;28;20002;-70
2022/04/27 01:06:19;;;;;;;11.05;7.88;;;;;;;8.50;81.43;101533.28;4996637;28;20021;-69
2022/04/27 01:08:44;;;;;;;9.55;8.63;;;;;;;8.48;81.88;101530.75;5005538;28;20263;-70
2022/04/27 01:11:09;;;;;;;9.40;7.72;;;;;;;8.45;82.20;101530.97;5003058;28;20028;-70
2022/04/27 01:13:37;;;;;;;8.48;7.68;;;;;;;8.44;81.82;101539.78;4999791;28;20423;-70
2022/04/27 01:16:02;;;;;;;8.10;7.40;;;;;;;8.50;81.80;101533.28;4992396;28;20004;-70
2022/04/27 01:18:28;;;;;;;8.82;7.25;;;;;;;8.62;81.39;101539.53;5003253;28;20374;-70
2022/04/27 01:20:54;;;;;;;12.02;7.63;;;;;;;8.54;81.73;101540.88;4993031;28;20019;-71
2022/04/27 01:23:19;;;;;;;9.70;8.18;;;;;;;8.48;81.56;101545.75;5003257;28;20017;-70
2022/04/27 01:25:46;;;;;;;8.93;8.00;;;;;;;8.42;81.68;101552.25;4986943;28;20021;-69
2022/04/27 01:28:12;;;;;;;8.85;7.93;;;;;;;8.41;82.25;101551.38;5027041;28;20025;-70
2022/04/27 01:30:37;;;;;;;9.48;7.78;;;;;;;8.70;81.45;101545.97;5024375;28;20473;-70
2022/04/27 01:33:09;;;;;;;8.32;7.57;;;;;;;8.85;80.64;101549.34;4991152;28;20013;-70
2022/04/27 01:35:35;;;;;;;10.65;7.53;;;;;;;8.75;81.09;101549.13;5013917;28;20093;-71
2022/04/27 01:38:00;;;;;;;8.13;7.43;;;;;;;8.76;81.43;101549.97;4985506;28;20037;-70
2022/04/27 01:40:25;;;;;;;8.77;7.88;;;;;;;8.85;81.23;101557.25;5002653;28;20378;-70
2022/04/27 01:42:51;;;;;;;9.23;8.27;;;;;;;8.83;81.69;101555.69;5004367;28;20026;-70
2022/04/27 01:45:16;;;;;;;9.85;7.68;;;;;;;8.88;82.11;101546.50;5000977;28;20030;-70
2022/04/27 01:47:41;;;;;;;11.02;7.85;;;;;;;8.77;82.59;101549.00;5002786;28;20040;-69
2022/04/27 01:50:07;;;;;;;8.68;7.82;;;;;;;8.61;82.99;101546.59;5002163;28;20029;-70
2022/04/27 01:55:16;;;;;;;10.50;9.02;;;;;;;8.43;84.62;101548.63;5007420;28;20686;-70
2022/04/27 01:57:42;;;;;;;12.02;8.90;;;;;;;8.37;85.44;101551.69;5000640;28;20029;-70
2022/04/27 02:00:08;;;;;;;10.27;8.82;;;;;;;8.33;86.11;101552.84;5003722;28;20368;-71
2022/04/27 02:02:33;;;;;;;8.77;7.88;;;;;;;8.52;85.25;101553.34;4999799;28;20097;-70
2022/04/27 02:04:59;;;;;;;12.13;8.32;;;;;;;8.41;85.49;101556.66;5006501;28;20010;-68
2022/04/27 02:07:25;;;;;;;10.13;8.07;;;;;;;8.36;85.62;101557.91;5005529;28;20018;-69
2022/04/27 02:09:50;;;;;;;9.10;8.20;;;;;;;8.33;85.90;101552.84;4999577;28;20265;-69
2022/04/27 02:12:16;;;;;;;9.73;8.65;;;;;;;8.31;86.48;101560.03;5003382;28;20098;-69
2022/04/27 02:14:41;;;;;;;9.68;8.82;;;;;;;8.31;86.01;101560.84;5009004;28;20075;-69
2022/04/27 02:17:07;;;;;;;9.90;8.93;;;;;;;8.30;86.31;101559.16;5005706;28;20067;-70
2022/04/27 02:19:32;;;;;;;11.80;8.57;;;;;;;8.30;87.13;101560.97;5009363;28;20017;-70
2022/04/27 02:21:58;;;;;;;9.80;8.77;;;;;;;8.41;86.49;101566.38;5001741;28;20043;-69
2022/04/27 02:24:25;;;;;;;9.38;8.65;;;;;;;8.36;87.28;101557.91;4993955;28;20535;-70
2022/04/27 02:26:52;;;;;;;9.77;8.88;;;;;;;8.33;87.24;101555.47;4973446;28;20017;-70
2022/04/27 02:29:17;;;;;;;11.48;8.48;;;;;;;8.34;87.61;101565.91;4991200;28;20085;-69
2022/04/27 02:31:43;;;;;;;10.82;8.75;;;;;;;8.49;86.21;101560.59;4976793;28;20634;-69
2022/04/27 02:34:10;;;;;;;9.90;8.90;;;;;;;8.31;87.01;101576.69;4970878;28;20018;-70
2022/04/27 02:36:35;;;;;;;10.45;9.25;;;;;;;8.39;86.98;101573.50;4958490;28;20030;-69
2022/04/27 02:39:00;;;;;;;12.30;9.95;;;;;;;8.32;86.92;101573.09;4977143;28;20041;-69
2022/04/27 02:41:26;;;;;;;10.50;9.07;;;;;;;8.27;86.50;101574.34;4982057;28;20015;-69
2022/04/27 02:43:51;;;;;;;10.20;9.05;;;;;;;8.34;86.11;101576.47;4977131;28;21035;-69
2022/04/27 02:46:16;;;;;;;10.43;8.80;;;;;;;8.46;85.49;101580.13;4981136;28;20495;-69
2022/04/27 02:51:48;;;;;;;10.25;9.25;;;;;;;8.49;84.36;101579.06;4957545;28;20018;-69
2022/04/27 02:54:11;;;;;;;10.63;9.63;;;;;;;8.42;84.03;101584.72;4989960;28;20013;-69
2022/04/27 02:56:37;;;;;;;11.02;10.00;;;;;;;8.38;85.08;101579.75;4973647;28;20018;-69
2022/04/27 02:59:02;;;;;;;12.30;10.20;;;;;;;8.43;85.02;101580.28;4972095;28;20034;-69
2022/04/27 03:01:27;;;;;;;11.35;10.15;;;;;;;8.50;84.88;101576.34;4956558;28;20022;-69
2022/04/27 03:03:53;;;;;;;12.32;10.23;;;;;;;8.47;85.06;101581.81;4964095;28;20019;-69
2022/04/27 03:06:18;;;;;;;11.18;10.00;;;;;;;8.48;85.52;101585.31;4962812;28;20492;-69
2022/04/27 03:08:43;;;;;;;10.73;9.75;;;;;;;8.57;85.19;101580.25;4993530;28;20036;-70
2022/04/27 03:11:09;;;;;;;10.18;9.02;;;;;;;8.58;84.74;101587.19;4982392;28;20019;-70
2022/04/27 03:13:34;;;;;;;12.38;8.90;;;;;;;8.64;83.43;101587.75;4972185;28;20030;-69
2022/04/27 03:16:00;;;;;;;11.32;9.18;;;;;;;8.54;82.96;101584.88;4976807;28;20017;-69
2022/04/27 03:18:25;;;;;;;9.60;8.68;;;;;;;8.44;83.28;101581.97;4957392;28;20030;-69
2022/04/27 03:20:51;;;;;;;11.27;8.85;;;;;;;8.41;82.90;101572.47;4979186;28;20006;-69
2022/04/27 03:23:17;;;;;;;9.68;8.77;;;;;;;8.49;83.18;101584.34;4959063;28;19998;-69
2022/04/27 03:25:42;;;;;;;9.65;8.70;;;;;;;8.39;82.69;101589.34;4990678;28;20021;-70
2022/04/27 03:28:08;;;;;;;9.40;8.50;;;;;;;8.37;82.86;101585.97;4995395;28;20146;-69
2022/04/27 03:30:33;;;;;;;12.35;8.75;;;;;;;8.33;82.28;101587.13;4993280;28;21099;-69
2022/04/27 03:32:59;;;;;;;9.63;8.65;;;;;;;8.42;82.07;101583.88;4986778;28;20013;-69
2022/04/27 03:35:25;;;;;;;9.13;8.13;;;;;;;8.45;81.29;101591.63;4939477;28;20492;-69
2022/04/27 03:37:50;;;;;;;11.82;8.75;;;;;;;8.38;81.21;101590.31;4969066;28;20030;-69
2022/04/27 03:40:16;;;;;;;12.82;9.00;;;;;;;8.30;81.56;101600.50;4973916;28;21006;-68
2022/04/27 03:42:41;;;;;;;12.02;8.77;;;;;;;8.29;81.47;101601.44;4991542;28;20083;-69
2022/04/27 03:45:07;;;;;;;10.68;8.95;;;;;;;8.19;81.66;101603.84;4990836;28;20022;-70
2022/04/27 03:47:32;;;;;;;9.27;8.35;;;;;;;8.15;81.03;101597.94;4968712;28;20033;-70
2022/04/27 03:50:04;;;;;;;9.50;8.25;;;;;;;8.21;81.13;101607.25;4955680;28;20014;-70
2022/04/27 03:52:29;;;;;;;9.88;8.88;;;;;;;8.24;80.65;101609.69;4965405;28;20072;-69
2022/04/27 03:54:59;;;;;;;9.68;8.88;;;;;;;8.11;81.00;101617.53;4991406;28;20048;-69
2022/04/27 03:57:25;;;;;;;9.60;8.65;;;;;;;8.20;81.17;101611.66;4957057;28;20117;-69
2022/04/27 03:59:50;;;;;;;10.27;8.70;;;;;;;8.14;81.05;101612.06;4993835;28;20233;-68
2022/04/27 04:02:16;;;;;;;9.77;8.48;;;;;;;8.11;81.22;101614.91;4993292;28;20439;-68
2022/04/27 04:04:41;;;;;;;11.75;9.48;;;;;;;8.07;80.75;101616.88;4991727;28;20030;-69
2022/04/27 04:07:07;;;;;;;10.95;8.80;;;;;;;8.18;81.26;101623.25;4971643;28;20905;-69
2022/04/27 04:09:32;;;;;;;10.27;8.85;;;;;;;8.15;81.18;101626.94;4958205;28;20093;-70
2022/04/27 04:11:57;;;;;;;12.38;8.93;;;;;;;8.23;80.21;101634.34;5007190;27;20021;-70
2022/04/27 04:14:23;;;;;;;11.52;9.35;;;;;;;8.15;80.74;101637.50;4997807;28;20896;-70
2022/04/27 04:16:48;;;;;;;10.27;9.25;;;;;;;8.14;80.63;101638.44;4997514;28;20143;-71
2022/04/27 04:19:14;;;;;;;12.27;8.82;;;;;;;8.21;80.56;101637.09;5008079;28;20923;-71
2022/04/27 04:21:39;;;;;;;9.85;8.95;;;;;;;8.14;80.58;101638.44;4977716;28;19998;-71
2022/04/27 04:24:05;;;;;;;9.98;8.85;;;;;;;8.10;81.40;101647.47;4974504;28;20037;-71
2022/04/27 04:29:14;;;;;;;10.18;9.18;;;;;;;8.15;81.13;101650.66;4992801;28;20033;-69
2022/04/27 04:31:40;;;;;;;10.60;8.95;;;;;;;8.28;80.85;101650.72;4988797;28;20014;-66
2022/04/27 04:34:05;;;;;;;10.27;9.20;;;;;;;8.23;80.28;101660.72;4971967;28;20010;-69
2022/04/27 04:36:30;;;;;;;10.57;9.43;;;;;;;8.24;79.34;101662.41;5002746;27;20963;-69
2022/04/27 04:38:57;;;;;;;14.35;9.05;;;;;;;8.27;79.44;101674.56;4984219;28;20193;-69
2022/04/27 04:41:22;;;;;;;10.88;9.32;;;;;;;8.29;78.60;101675.28;4957065;28;20006;-70
2022/04/27 04:43:48;;;;;;;9.70;8.65;;;;;;;8.31;79.06;101676.06;4993306;28;20142;-69
2022/04/27 04:46:13;;;;;;;10.60;9.50;;;;;;;8.21;79.38;101679.25;4974196;28;20999;-68
2022/04/27 04:48:38;;;;;;;11.52;9.45;;;;;;;8.38;79.75;101672.06;4974749;28;20077;-69
2022/04/27 04:51:04;;;;;;;10.63;9.52;;;;;;;8.39;79.47;101676.38;4956746;28;20006;-69
2022/04/27 04:53:30;;;;;;;10.60;9.65;;;;;;;8.36;79.25;101679.22;4973638;28;20377;-70
2022/04/27 04:55:55;;;;;;;14.35;9.48;;;;;;;8.48;79.33;101678.47;4974193;28;20033;-70
2022/04/27 04:58:21;;;;;;;9.95;9.05;;;;;;;8.37;78.60;101686.19;4993295;28;20242;-69
2022/04/27 05:00:48;;;;;;;15.00;9.80;;;;;;;8.27;79.94;101685.09;4975272;28;20950;-69
2022/04/27 05:03:14;;;;;;;9.90;8.90;;;;;;;8.24;80.20;101689.63;4975435;28;20108;-70
2022/04/27 05:05:39;;;;;;;12.18;9.32;;;;;;;8.20;80.86;101693.38;4972368;28;20089;-70
2022/04/27 05:08:06;;;;;;;11.90;9.15;;;;;;;8.11;80.88;101686.09;4997040;28;20028;-69
2022/04/27 05:10:31;;;;;;;13.70;9.25;;;;;;;8.06;80.99;101688.16;4978206;28;20014;-70
2022/04/27 05:12:57;;;;;;;14.30;9.60;;;;;;;8.05;81.26;101697.00;4976800;28;20012;-70
2022/04/27 05:15:22;;;;;;;11.43;9.75;;;;;;;7.95;82.04;101685.34;4967235;28;20032;-70
2022/04/27 05:17:48;;;;;;;12.52;9.70;;;;;;;7.90;81.95;101694.38;4977599;28;20029;-70
2022/04/27 05:20:13;;;;;;;10.93;9.57;;;;;;;7.88;81.18;101690.16;4962431;28;20154;-70
2022/04/27 05:22:39;;;;;;;13.02;9.55;;;;;;;7.90;81.35;101702.28;4996237;28;20798;-70
2022/04/27 05:25:06;;;;;;;11.90;9.65;;;;;;;7.83;81.43;101698.34;4978098;28;20014;-70
2022/04/27 05:27:31;;;;;;;13.43;10.10;;;;;;;7.97;81.01;101704.56;4993627;28;20023;-69
2022/04/27 05:32:44;;;;;;;;;;;;;;;7.92;81.44;101718.00;4986014;28;20315;-69
2022/04/27 05:35:10;;;;;;;12.63;9.60;;;;;;;7.99;81.90;101721.13;4971612;28;19911;-70
2022/04/27 05:37:36;;;;;;;11.45;10.20;;;;;;;8.08;81.67;101717.91;4957060;28;20083;-70
2022/04/27 05:40:01;;;;;;;11.77;10.63;;;;;;;8.14;81.74;101729.88;4975124;28;20315;-70
2022/04/27 05:42:26;;;;;;;14.88;10.85;;;;;;;8.10;81.89;101734.47;4971647;28;20006;-70
2022/04/27 05:44:52;;;;;;;11.98;10.63;;;;;;;8.18;82.18;101734.84;4966087;28;20201;-70
2022/04/27 05:47:17;;;;;;;13.50;10.48;;;;;;;8.26;81.22;101731.69;4955708;28;20021;-70
2022/04/27 05:49:43;;;;;;;16.58;10.88;;;;;;;8.36;80.73;101742.50;4959394;28;20246;-70
2022/04/27 05:52:08;;;;;;;11.40;10.35;;;;;;;8.43;80.13;101738.53;4973639;28;20010;-70
2022/04/27 05:54:33;;;;;;;13.80;10.25;;;;;;;8.54;79.46;101746.63;4956344;28;20264;-70
2022/04/27 05:56:59;;;;;;;11.65;10.48;;;;;;;8.58;78.81;101742.03;4957615;28;20849;-70
2022/04/27 05:59:24;;;;;;;12.40;10.73;;;;;;;8.67;77.77;101745.84;4972823;28;20091;-70
2022/04/27 06:01:49;;;;;;;11.10;10.00;;;;;;;8.81;77.22;101744.97;4956868;28;20022;-69
2022/04/27 06:04:15;;;;;;;15.13;11.02;;;;;;;8.70;78.84;101750.91;4972638;28;20112;-69
2022/04/27 06:06:40;;;;;;;12.65;11.27;;;;;;;8.72;79.09;101749.03;4972299;28;20942;-68
2022/04/27 06:09:06;;;;;;;12.57;10.25;;;;;;;8.74;79.32;101752.41;4974811;28;20007;-69
2022/04/27 06:11:31;;;;;;;14.10;10.95;;;;;;;8.85;78.95;101765.75;4970971;28;20009;-70
2022/04/27 06:13:57;;;;;;;14.63;10.40;;;;;;;8.98;78.58;101752.59;4972585;28;20070;-70
2022/04/27 06:16:24;;;;;;;12.93;10.55;;;;;;;9.02;76.79;101758.53;4988380;28;20036;-69
2022/04/27 06:18:49;;;;;;;12.45;11.02;;;;;;;9.09;75.92;101762.47;4990491;28;21292;-69
2022/04/27 06:21:15;;;;;;;14.38;10.82;;;;;;;9.07;75.48;101765.19;4952338;28;20616;-70
2022/04/27 06:23:40;;;;;;;11.05;9.80;;;;;;;9.43;74.23;101773.41;4952417;28;20053;-70
2022/04/27 06:26:06;;;;;;;11.43;10.15;;;;;;;9.56;73.83;101770.75;4971409;28;20054;-70
2022/04/27 06:28:34;;;;;;;11.40;10.00;;;;;;;9.76;73.21;101772.06;4974306;28;20206;-70
2022/04/27 06:31:00;;;;;;;10.35;9.30;;;;;;;9.81;71.52;101780.50;4955511;28;20859;-70
2022/04/27 06:33:25;;;;;;;10.05;9.02;;;;;;;9.84;71.65;101769.69;4970618;28;20022;-71
2022/04/27 06:35:51;;;;;;;10.80;9.70;;;;;;;9.90;71.45;101779.88;4974205;28;20281;-70
2022/04/27 06:38:16;;;;;;;12.43;9.48;;;;;;;9.82;71.51;101776.91;4975487;28;20498;-70
2022/04/27 06:40:42;;;;;;;10.15;9.20;;;;;;;9.91;71.63;101776.28;4986877;28;20010;-71
2022/04/27 06:43:07;;;;;;;13.25;9.60;;;;;;;9.97;72.48;101775.84;4957274;28;20006;-70
2022/04/27 06:45:36;;;;;;;9.98;8.93;;;;;;;9.93;72.07;101774.38;4978033;28;20014;-70
2022/04/27 06:48:01;;;;;;;10.25;8.15;;;;;;;10.02;71.46;101782.59;4993508;28;20887;-70
2022/04/27 06:50:27;;;;;;;8.73;7.82;;;;;;;10.11;72.17;101781.94;4976429;28;20002;-71
2022/04/27 06:52:59;;;;;;;11.18;8.88;;;;;;;10.29;71.66;101780.66;4977253;28;20044;-71
2022/04/27 06:55:24;;;;;;;8.38;7.68;;;;;;;10.41;71.90;101783.44;4992206;28;20030;-70
2022/04/27 06:57:49;;;;;;;6.88;6.20;;;;;;;10.25;69.99;101789.78;4979358;28;20010;-69
2022/04/27 07:00:15;;;;;;;7.10;6.10;;;;;;;10.24;69.41;101789.88;4974587;28;20029;-69
2022/04/27 07:02:40;;;;;;;8.63;5.43;;;;;;;10.30;67.64;101790.28;4993462;28;20047;-69
2022/04/27 07:05:09;;;;;;;8.75;4.90;;;;;;;10.34;66.24;101792.72;4971587;28;20010;-70
2022/04/27 07:07:35;;;;;;;7.68;4.68;;;;;;;10.39;66.51;101788.81;4967197;28;20026;-70
2022/04/27 07:10:00;;;;;;;4.93;4.43;;;;;;;10.52;66.01;101795.88;4952877;28;20087;-70
2022/04/27 07:12:26;;;;;;;6.47;5.03;;;;;;;10.58;66.39;101801.56;4988887;28;20022;-70
2022/04/27 07:14:51;;;;;;;5.97;4.97;;;;;;;10.72;67.05;101797.09;4970213;28;20049;-70
2022/04/27 07:17:19;;;;;;;5.07;4.45;;;;;;;10.82;65.31;101801.56;4975191;28;20814;-70
2022/04/27 07:19:45;;;;;;;5.60;4.55;;;;;;;10.89;65.17;101794.03;4956877;28;20022;-72
2022/04/27 07:22:11;;;;;;;5.00;4.50;;;;;;;10.99;65.60;101795.03;4938343;28;20026;-70
2022/04/27 07:24:39;;;;;;;9.98;4.55;;;;;;;11.08;65.11;101797.97;4953633;28;20348;-71
2022/04/27 07:27:05;;;;;;;6.38;4.38;;;;;;;11.11;64.02;101797.75;4943374;28;20023;-70
2022/04/27 07:29:30;;;;;;;4.30;3.95;;;;;;;11.12;64.65;101796.78;4961292;28;20029;-70
2022/04/27 07:31:56;;;;;;;5.90;4.43;;;;;;;11.27;63.00;101802.75;4939758;28;20010;-70
2022/04/27 07:34:21;;;;;;;8.30;4.38;;;;;;;11.03;64.60;101808.06;4966468;28;20059;-71
2022/04/27 07:36:47;;;;;;;4.13;3.83;;;;;;;11.24;64.13;101803.81;4968488;28;21037;-70
2022/04/27 07:39:12;;;;;;;6.15;4.30;;;;;;;11.29;62.83;101801.66;4940651;28;20135;-70
2022/04/27 07:41:38;;;;;;;5.35;4.00;;;;;;;11.32;61.48;101814.69;4943181;28;20022;-70
2022/04/27 07:44:03;;;;;;;6.78;3.88;;;;;;;11.56;62.69;101818.25;4978514;28;20026;-70
2022/04/27 07:46:29;;;;;;;5.47;3.80;;;;;;;11.42;62.11;101814.84;4978771;28;21010;-70
2022/04/27 07:48:54;;;;;;;5.90;3.85;;;;;;;11.48;60.84;101811.72;4977749;28;20018;-71
2022/04/27 07:51:20;;;;;;;6.25;3.90;;;;;;;11.56;60.53;101819.06;4956542;28;20962;-71
2022/04/27 07:53:46;;;;;;;8.20;3.90;;;;;;;11.63;61.92;101825.63;4957491;28;20022;-71
2022/04/27 07:56:11;;;;;;;4.25;3.92;;;;;;;11.60;61.84;101825.00;4993264;28;20018;-70
2022/04/27 07:58:36;;;;;;;4.47;3.58;;;;;;;11.64;61.65;101829.13;4981448;28;20676;-71
2022/04/27 08:01:02;;;;;;;6.05;3.70;;;;;;;11.80;60.36;101816.38;4979121;28;20037;-71
2022/04/27 08:03:28;;;;;;;3.53;3.30;;;;;;;11.94;59.98;101817.97;4962957;28;20121;-72
2022/04/27 08:05:53;;;;;;;5.25;3.50;;;;;;;12.03;61.84;101817.25;4941898;28;20093;-70
2022/04/27 08:08:18;;;;;;;4.88;3.78;;;;;;;12.16;60.25;101826.94;4988345;28;20018;-69
2022/04/27 08:10:44;;;;;;;5.07;3.88;;;;;;;12.25;60.04;101820.03;4964512;28;20032;-69
2022/04/27 08:13:09;;;;;;;4.72;3.80;;;;;;;12.49;60.55;101828.72;4963958;28;20226;-70
2022/04/27 08:15:35;;;;;;;6.47;3.70;;;;;;;12.66;58.11;101832.69;4970369;28;20306;-70
2022/04/27 08:18:02;;;;;;;4.18;3.78;;;;;;;12.95;59.11;101829.44;4987283;28;20015;-70
2022/04/27 08:23:16;;;;;;;4.03;3.65;;;;;;;13.11;56.51;101829.03;4976848;28;20029;-70
2022/04/27 08:25:41;;;;;;;4.15;3.78;;;;;;;13.27;56.78;101836.59;4974708;28;20030;-70
2022/04/27 08:28:07;;;;;;;4.28;3.85;;;;;;;13.38;56.60;101835.72;4959876;28;20026;-69
2022/04/27 08:30:37;;;;;;;4.45;3.92;;;;;;;13.59;55.11;101830.41;4991623;28;20014;-69
2022/04/27 08:33:02;;;;;;;5.75;4.20;;;;;;;13.64;55.10;101827.38;4975431;28;20061;-70
2022/04/27 08:35:28;;;;;;;6.25;3.88;;;;;;;13.71;54.72;101832.03;4942223;28;20941;-70
2022/04/27 08:37:54;;;;;;;4.03;3.67;;;;;;;13.76;53.94;101830.78;4990777;28;20932;-70
2022/04/27 08:40:20;;;;;;;5.25;4.75;;;;;;;13.85;54.26;101849.47;4959662;28;20139;-70
2022/04/27 08:42:45;;;;;;;8.85;4.60;;;;;;;13.91;54.52;101835.63;4960945;28;20014;-70
2022/04/27 08:45:10;;;;;;;7.07;4.38;;;;;;;14.15;54.07;101854.97;4981391;28;20017;-70
2022/04/27 08:47:36;;;;;;;7.63;4.15;;;;;;;14.34;54.80;101846.19;5005165;28;20894;-70
2022/04/27 08:50:12;;;;;;;4.85;4.00;;;;;;;14.52;54.28;101836.59;4971850;28;20584;-71
2022/04/27 08:52:37;;;;;;;6.15;3.88;;;;;;;14.51;52.96;101844.72;4979055;28;20394;-71
2022/04/27 08:55:03;;;;;;;5.43;4.20;;;;;;;14.62;50.64;101846.44;4968336;28;20014;-72
2022/04/27 08:57:30;;;;;;;3.92;3.50;;;;;;;14.88;51.12;101844.97;4986563;28;20608;-71
2022/04/27 08:59:56;;;;;;;5.15;4.25;;;;;;;15.11;54.52;101842.06;5000316;27;20136;-71
2022/04/27 09:02:25;;;;;;;6.78;3.80;;;;;;;15.35;51.89;101849.63;4996041;28;20041;-71
2022/04/27 09:05:08;;;;;;;4.60;4.20;;;;;;;15.61;49.47;101849.06;4981758;28;20040;-71
2022/04/27 09:07:47;;;;;;;5.55;4.10;;;;;;;15.70;51.55;101842.84;4981886;28;20017;-71
2022/04/27 09:10:16;;;;;;;5.28;4.35;;;;;;;15.94;49.08;101849.56;4978478;28;20073;-71
2022/04/27 09:12:46;;;;;;;5.15;4.63;;;;;;;15.93;46.38;101847.88;4947894;28;20014;-71
2022/04/27 09:15:11;;;;;;;9.52;4.90;;;;;;;16.29;48.93;101846.22;4954642;28;20014;-71
2022/04/27 09:23:07;;;;;;;4.95;4.28;;;;;;;17.05;46.90;101849.59;4984782;28;20569;-72
2022/04/27 09:25:36;;;;;;;5.68;4.70;;;;;;;16.79;46.14;101847.66;4981273;28;20020;-72
2022/04/27 09:28:04;;;;;;;5.97;4.57;;;;;;;17.32;44.30;101848.66;4982343;28;20825;-71
2022/04/27 09:30:31;;;;;;;8.05;4.70;;;;;;;16.57;43.43;101848.91;5013487;28;20041;-71
2022/04/27 09:32:57;;;;;;;6.25;4.57;;;;;;;16.90;45.27;101843.09;4998044;28;20009;-71
2022/04/27 09:35:35;;;;;;;5.00;4.50;;;;;;;17.55;44.81;101837.47;4979373;28;20032;-72
2022/04/27 09:38:14;;;;;;;4.50;4.20;;;;;;;17.84;42.46;101839.03;4957574;28;20117;-71
2022/04/27 09:40:44;;;;;;;4.57;4.20;;;;;;;18.33;42.25;101852.72;4966531;28;20025;-71
2022/04/27 09:43:12;;;;;;;5.43;4.93;;;;;;;18.40;41.62;101839.47;4980510;28;20915;-71
2022/04/27 09:45:37;;;;;;;6.72;4.47;;;;;;;18.28;40.16;101832.75;5005326;28;20078;-71
2022/04/27 09:48:08;;;;;;;5.82;5.03;;;;;;;18.77;41.35;101835.59;5000919;28;20361;-71
2022/04/27 09:50:50;;;;;;;6.25;4.50;;;;;;;18.76;42.19;101839.25;4998676;28;20125;-71
2022/04/27 09:53:16;;;;;;;4.90;4.10;;;;;;;18.85;38.96;101842.81;4983053;28;20769;-71
2022/04/27 09:55:49;;;;;;;4.45;4.05;;;;;;;19.31;38.51;101842.41;5000843;28;20054;-71
2022/04/27 09:58:15;;;;;;;4.33;4.03;;;;;;;19.39;39.39;101840.53;5000862;28;20945;-72
2022/04/27 10:00:43;;;;;;;4.97;4.57;;;;;;;19.47;41.16;101837.00;4997341;28;20021;-71
2022/04/27 10:03:18;;;;;;;5.18;4.68;;;;;;;19.73;38.00;101836.81;4984792;28;20813;-71
2022/04/27 10:05:44;;;;;;;4.75;4.40;;;;;;;19.66;37.59;101832.31;4978241;28;20046;-72
2022/04/27 10:08:10;;;;;;;4.82;4.40;;;;;;;20.37;38.42;101841.34;5006568;28;20058;-71
2022/04/27 10:10:39;;;;;;;4.50;4.10;;;;;;;20.62;37.42;101837.72;5010160;28;21093;-71
2022/04/27 10:13:08;;;;;;;4.57;4.25;;;;;;;21.08;36.73;101829.69;4984173;28;20029;-71
2022/04/27 10:15:34;;;;;;;4.65;3.85;;;;;;;21.63;36.90;101830.41;4981748;28;20013;-72
2022/04/27 10:18:00;;;;;;;4.40;4.00;;;;;;;21.99;33.92;101831.56;4996180;28;20029;-70
2022/04/27 10:20:27;;;;;;;4.63;4.22;;;;;;;21.74;34.59;101826.44;4995801;28;20038;-70
2022/04/27 10:22:52;;;;;;;10.63;4.75;;;;;;;21.84;33.00;101824.28;5006219;28;20116;-71
2022/04/27 10:25:18;;;;;;;5.43;4.82;;;;;;;21.73;33.02;101828.31;4989079;28;20010;-71
2022/04/27 10:27:44;;;;;;;5.43;4.47;;;;;;;21.25;34.13;101825.84;4965433;28;20038;-70
2022/04/27 10:30:11;;;;;;;5.20;4.68;;;;;;;19.97;37.67;101826.22;4978493;28;20517;-69
2022/04/27 10:32:37;;;;;;;5.18;4.78;;;;;;;19.40;38.82;101827.94;4994355;28;20036;-71
2022/04/27 10:35:30;;;;;;;5.63;4.90;;;;;;;19.42;39.16;101833.13;4978441;28;20132;-71
2022/04/27 10:37:59;;;;;;;5.40;4.78;;;;;;;18.75;36.81;101828.72;4967319;28;20053;-71
2022/04/27 10:40:30;;;;;;;6.55;5.18;;;;;;;18.53;37.06;101834.50;4957919;28;20018;-71
2022/04/27 10:43:07;;;;;;;4.55;4.18;;;;;;;18.30;38.97;101830.75;4974501;28;20264;-71
2022/04/27 10:45:34;;;;;;;5.53;5.03;;;;;;;18.15;38.59;101834.03;4970056;28;20522;-70
2022/04/27 10:47:59;;;;;;;5.40;4.97;;;;;;;19.21;38.07;101832.66;4957273;28;20918;-71
2022/04/27 10:50:34;;;;;;;6.00;5.43;;;;;;;19.84;36.01;101827.59;4955385;28;20017;-70
2022/04/27 10:53:21;;;;;;;5.82;5.15;;;;;;;19.36;38.47;101827.47;4957647;28;20006;-71
2022/04/27 10:55:54;;;;;;;8.77;7.97;;;;;;;18.71;37.40;101831.72;4957326;28;20079;-71
2022/04/27 10:58:22;;;;;;;9.03;5.77;;;;;;;18.43;38.29;101833.81;4973917;28;20477;-71
2022/04/27 11:01:02;;;;;;;5.53;5.13;;;;;;;18.23;38.89;101832.38;4970665;28;20049;-71
2022/04/27 11:03:41;;;;;;;7.20;5.70;;;;;;;18.08;39.06;101827.63;4973912;28;20018;-70
2022/04/27 11:06:10;;;;;;;8.10;5.38;;;;;;;18.29;40.22;101831.72;4953797;28;20038;-70
2022/04/27 11:09:08;;;;;;;6.10;5.53;;;;;;;18.68;39.13;101832.06;4937987;28;20022;-70
2022/04/27 11:11:33;;;;;;;8.00;5.30;;;;;;;19.46;40.06;101835.34;4978219;28;20022;-70
2022/04/27 11:14:08;;;;;;;6.13;5.55;;;;;;;20.56;37.72;101833.88;4954601;28;20037;-71
2022/04/27 11:16:43;;;;;;;5.25;4.85;;;;;;;21.61;34.48;101832.47;4972361;28;20052;-70
2022/04/27 11:19:08;;;;;;;5.22;4.82;;;;;;;21.12;35.32;101835.56;4992733;28;20053;-70
2022/04/27 11:21:34;;;;;;;6.05;5.55;;;;;;;21.63;33.46;101837.66;4976786;28;21014;-71
2022/04/27 11:23:59;;;;;;;8.60;6.70;;;;;;;22.31;32.85;101824.94;4952223;28;20417;-71
2022/04/27 11:26:25;;;;;;;5.47;4.97;;;;;;;22.91;33.68;101832.91;4949846;28;20021;-71
2022/04/27 11:28:52;;;;;;;5.70;5.20;;;;;;;23.06;33.18;101822.06;4942327;28;20798;-72
2022/04/27 11:31:18;;;;;;;5.50;5.00;;;;;;;23.33;29.48;101823.97;4940533;28;20959;-71
2022/04/27 11:33:44;;;;;;;5.18;4.68;;;;;;;23.40;31.27;101823.19;4959835;28;20205;-72
2022/04/27 11:36:23;;;;;;;5.80;5.30;;;;;;;23.92;32.12;101816.50;4986443;28;20912;-72
2022/04/27 11:38:48;;;;;;;6.95;5.72;;;;;;;24.93;30.55;101819.56;5006031;28;20797;-72
2022/04/27 11:41:14;;;;;;;5.05;4.65;;;;;;;24.76;31.06;101822.69;4994656;28;20021;-71
2022/04/27 11:43:40;;;;;;;5.28;4.78;;;;;;;23.95;30.63;101815.28;4992198;28;20095;-70